createdAt,value
2022-08-21T00:00:42.382Z,7.50
2022-08-21T00:03:50.405Z,7.50
2022-08-21T00:06:22.881Z,7.20
2022-08-21T00:08:54.955Z,6.80
2022-08-21T00:11:29.357Z,7.10
2022-08-21T00:14:01.258Z,7.20
2022-08-21T00:16:33.833Z,7.80
2022-08-21T00:19:07.270Z,7.50
2022-08-21T00:21:39.271Z,6.80
2022-08-21T00:24:13.716Z,6.60
2022-08-21T00:26:46.242Z,6.60
2022-08-21T00:29:18.950Z,6.30
2022-08-21T00:31:50.969Z,6.20
2022-08-21T00:34:22.827Z,6.40
2022-08-21T00:36:54.685Z,5.90
2022-08-21T00:39:31.255Z,6.50
2022-08-21T00:42:03.134Z,6.50
2022-08-21T00:44:35.093Z,6.60
2022-08-21T00:47:10.470Z,6.10
2022-08-21T00:49:42.923Z,6.60
2022-08-21T00:52:23.089Z,6.50
2022-08-21T00:54:57.871Z,6.70
2022-08-21T00:57:36.367Z,5.60
2022-08-21T01:00:17.031Z,6.60
2022-08-21T01:02:49.695Z,7.20
2022-08-21T01:05:21.582Z,6.30
2022-08-21T01:07:53.983Z,7.10
2022-08-21T01:10:26.229Z,7.10
2022-08-21T01:12:59.701Z,8.20
2022-08-21T01:15:39.055Z,7.80
2022-08-21T01:18:13.154Z,8.20
2022-08-21T01:20:47.753Z,8.50
2022-08-21T01:23:22.699Z,9.20
2022-08-21T01:25:54.992Z,9.40
2022-08-21T01:28:31.357Z,8.90
2022-08-21T01:31:07.138Z,9.10
2022-08-21T01:33:39.348Z,10.30
2022-08-21T01:36:11.741Z,10.20
2022-08-21T01:38:43.578Z,9.40
2022-08-21T01:41:18.340Z,9.90
2022-08-21T01:43:50.954Z,11.10
2022-08-21T01:46:22.975Z,9.90
2022-08-21T01:48:57.376Z,10.30
2022-08-21T01:51:29.430Z,10.40
2022-08-21T01:54:01.702Z,10.40
2022-08-21T01:56:43.478Z,10.60
2022-08-21T01:59:16.396Z,10.70
2022-08-21T02:01:48.300Z,10.30
2022-08-21T02:04:20.711Z,10.60
2022-08-21T02:06:53.509Z,10.40
2022-08-21T02:09:25.590Z,10.10
2022-08-21T02:11:58.144Z,11.30
2022-08-21T02:14:32.002Z,10.70
2022-08-21T02:17:09.329Z,10.40
2022-08-21T02:19:42.597Z,9.80
2022-08-21T02:22:15.445Z,10.60
2022-08-21T02:24:54.913Z,10.50
2022-08-21T02:27:28.889Z,9.60
2022-08-21T02:30:01.116Z,10.10
2022-08-21T02:32:33.360Z,10.40
2022-08-21T02:35:09.426Z,10.20
2022-08-21T02:37:49.316Z,9.70
2022-08-21T02:40:27.059Z,9.90
2022-08-21T02:42:59.455Z,10.40
2022-08-21T02:45:32.425Z,10.40
2022-08-21T02:48:08.451Z,10.20
2022-08-21T02:50:47.397Z,9.80
2022-08-21T02:53:20.854Z,10.40
2022-08-21T02:55:54.989Z,9.60
2022-08-21T02:58:29.843Z,10.80
2022-08-21T03:01:02.299Z,11.20
2022-08-21T03:03:36.325Z,10.20
2022-08-21T03:06:10.590Z,10.80
2022-08-21T03:08:42.912Z,10.30
2022-08-21T03:11:16.021Z,10.80
2022-08-21T03:13:51.068Z,10.90
2022-08-21T03:16:25.974Z,12.40
2022-08-21T03:19:01.349Z,11.70
2022-08-21T03:21:33.255Z,11.80
2022-08-21T03:24:07.914Z,10.90
2022-08-21T03:26:40.620Z,11.70
2022-08-21T03:29:13.869Z,11.90
2022-08-21T03:31:46.703Z,11.80
2022-08-21T03:34:18.715Z,10.80
2022-08-21T03:36:51.066Z,11.80
2022-08-21T03:39:23.089Z,11.20
2022-08-21T03:41:55.234Z,11.10
2022-08-21T03:44:31.373Z,11.60
2022-08-21T03:47:05.241Z,11.50
2022-08-21T03:49:37.872Z,10.80
2022-08-21T03:52:10.209Z,11.30
2022-08-21T03:54:42.831Z,10.80
2022-08-21T03:57:14.816Z,10.60
2022-08-21T03:59:47.397Z,10.70
2022-08-21T04:02:23.007Z,10.30
2022-08-21T04:04:54.869Z,10.50
2022-08-21T04:07:26.788Z,11.90
2022-08-21T04:09:58.854Z,11.50
2022-08-21T04:12:31.297Z,11.30
2022-08-21T04:15:03.494Z,12.00
2022-08-21T04:17:38.384Z,13.00
2022-08-21T04:20:13.676Z,11.90
2022-08-21T04:22:49.691Z,11.80
2022-08-21T04:25:24.094Z,11.20
2022-08-21T04:27:56.730Z,11.30
2022-08-21T04:30:29.302Z,12.40
2022-08-21T04:33:01.889Z,11.60
2022-08-21T04:35:34.430Z,11.90
2022-08-21T04:38:06.727Z,11.70
2022-08-21T04:40:39.231Z,11.90
2022-08-21T04:43:13.444Z,10.80
2022-08-21T04:45:50.222Z,11.70
2022-08-21T04:48:25.425Z,12.10
2022-08-21T04:51:02.566Z,12.60
2022-08-21T04:53:39.577Z,12.70
2022-08-21T04:56:14.605Z,12.00
2022-08-21T04:58:47.085Z,12.50
2022-08-21T05:01:23.541Z,12.50
2022-08-21T05:04:00.825Z,12.90
2022-08-21T05:06:38.024Z,12.60
2022-08-21T05:09:11.531Z,12.30
2022-08-21T05:11:44.026Z,12.60
2022-08-21T05:14:17.267Z,12.60
2022-08-21T05:16:49.534Z,13.20
2022-08-21T05:19:21.659Z,12.70
2022-08-21T05:21:53.812Z,13.50
2022-08-21T05:24:26.014Z,13.10
2022-08-21T05:26:57.847Z,12.80
2022-08-21T05:29:32.506Z,13.20
2022-08-21T05:32:09.848Z,13.50
2022-08-21T05:34:42.881Z,13.60
2022-08-21T05:37:15.447Z,13.60
2022-08-21T05:40:05.015Z,14.80
2022-08-21T05:42:44.236Z,13.90
2022-08-21T05:45:43.052Z,13.60
2022-08-21T05:48:20.635Z,13.70
2022-08-21T05:50:54.187Z,13.10
2022-08-21T05:53:27.540Z,14.30
2022-08-21T05:55:59.597Z,14.40
2022-08-21T05:58:32.423Z,14.50
2022-08-21T06:01:08.415Z,14.60
2022-08-21T06:03:42.100Z,13.90
2022-08-21T06:06:13.991Z,12.70
2022-08-21T06:08:46.399Z,14.00
2022-08-21T06:11:20.782Z,13.50
2022-08-21T06:13:53.378Z,14.00
2022-08-21T06:16:25.322Z,15.40
2022-08-21T06:19:02.900Z,14.70
2022-08-21T06:21:37.488Z,14.30
2022-08-21T06:24:09.796Z,16.10
2022-08-21T06:26:41.713Z,14.70
2022-08-21T06:29:17.515Z,16.20
2022-08-21T06:31:51.002Z,17.30
2022-08-21T06:34:23.176Z,15.50
2022-08-21T06:36:55.303Z,15.50
2022-08-21T06:39:32.453Z,13.90
2022-08-21T06:42:05.899Z,14.90
2022-08-21T06:44:42.963Z,15.20
2022-08-21T06:47:15.061Z,23.70
2022-08-21T06:49:47.296Z,17.60
2022-08-21T06:52:19.707Z,15.50
2022-08-21T06:54:51.571Z,18.00
2022-08-21T06:57:26.706Z,17.00
2022-08-21T06:59:59.955Z,16.50
2022-08-21T07:02:34.202Z,15.70
2022-08-21T07:05:15.619Z,15.30
2022-08-21T07:07:50.603Z,13.90
2022-08-21T07:10:22.943Z,14.80
2022-08-21T07:13:00.384Z,13.10
2022-08-21T07:15:37.037Z,14.00
2022-08-21T07:18:09.155Z,14.70
2022-08-21T07:20:41.546Z,13.90
2022-08-21T07:23:22.898Z,13.50
2022-08-21T07:25:55.167Z,13.10
2022-08-21T07:28:27.569Z,12.90
2022-08-21T07:31:01.832Z,13.20
2022-08-21T07:33:37.484Z,15.20
2022-08-21T07:36:10.774Z,14.20
2022-08-21T07:38:43.196Z,13.40
2022-08-21T07:41:19.433Z,13.70
2022-08-21T07:43:52.747Z,12.70
2022-08-21T07:46:25.683Z,12.60
2022-08-21T07:48:57.833Z,12.30
2022-08-21T07:51:32.867Z,13.60
2022-08-21T07:54:05.159Z,13.80
2022-08-21T07:56:37.056Z,13.50
2022-08-21T07:59:09.444Z,13.50
2022-08-21T08:01:41.756Z,12.80
2022-08-21T08:04:16.009Z,13.10
2022-08-21T08:06:47.978Z,12.40
2022-08-21T08:09:21.851Z,14.00
2022-08-21T08:11:53.968Z,14.90
2022-08-21T08:14:31.485Z,14.40
2022-08-21T08:17:04.060Z,14.80
2022-08-21T08:19:36.190Z,13.70
2022-08-21T08:22:18.167Z,15.30
2022-08-21T08:24:50.781Z,14.50
2022-08-21T08:27:23.506Z,14.80
2022-08-21T08:29:55.372Z,13.80
2022-08-21T08:32:28.531Z,15.00
2022-08-21T08:35:00.734Z,13.80
2022-08-21T08:37:34.429Z,13.30
2022-08-21T08:40:12.497Z,13.70
2022-08-21T08:42:44.578Z,14.20
2022-08-21T08:45:23.021Z,14.20
2022-08-21T08:48:03.627Z,15.70
2022-08-21T08:50:51.530Z,14.70
2022-08-21T08:53:31.108Z,14.00
2022-08-21T08:56:06.936Z,14.30
2022-08-21T08:58:43.234Z,14.10
2022-08-21T09:01:19.324Z,13.40
2022-08-21T09:03:53.143Z,14.60
2022-08-21T09:06:39.047Z,14.80
2022-08-21T09:09:28.354Z,13.00
2022-08-21T09:12:08.305Z,13.40
2022-08-21T09:15:04.534Z,12.70
2022-08-21T09:17:54.134Z,13.40
2022-08-21T09:20:40.370Z,14.30
2022-08-21T09:23:24.189Z,13.60
2022-08-21T09:26:04.126Z,14.00
2022-08-21T09:28:37.513Z,13.20
2022-08-21T09:31:18.309Z,12.60
2022-08-21T09:33:50.417Z,12.80
2022-08-21T09:36:33.422Z,13.70
2022-08-21T09:39:07.077Z,14.50
2022-08-21T09:41:40.334Z,14.90
2022-08-21T09:44:12.390Z,13.00
2022-08-21T09:46:54.104Z,13.90
2022-08-21T09:49:37.194Z,14.00
2022-08-21T09:52:20.807Z,13.10
2022-08-21T09:54:56.515Z,12.80
2022-08-21T09:57:50.328Z,14.30
2022-08-21T10:00:32.923Z,12.30
2022-08-21T10:03:19.704Z,13.10
2022-08-21T10:05:58.444Z,12.00
2022-08-21T10:08:33.983Z,12.00
2022-08-21T10:11:09.920Z,12.70
2022-08-21T10:13:53.604Z,11.90
2022-08-21T10:16:39.847Z,12.60
2022-08-21T10:19:25.898Z,12.50
2022-08-21T10:22:09.541Z,12.90
2022-08-21T10:24:48.609Z,14.20
2022-08-21T10:27:31.293Z,13.30
2022-08-21T10:30:09.712Z,14.10
2022-08-21T10:33:01.980Z,14.40
2022-08-21T10:35:38.192Z,13.80
2022-08-21T10:39:02.315Z,14.00
2022-08-21T10:42:04.928Z,13.70
2022-08-21T10:44:44.053Z,14.20
2022-08-21T10:47:25.654Z,14.50
2022-08-21T10:50:06.359Z,13.60
2022-08-21T10:53:04.546Z,13.20
2022-08-21T10:55:41.438Z,13.30
2022-08-21T10:58:16.456Z,13.50
2022-08-21T11:00:54.691Z,13.20
2022-08-21T11:03:31.444Z,13.10
2022-08-21T11:06:08.068Z,12.00
2022-08-21T11:08:45.066Z,12.40
2022-08-21T11:11:24.928Z,11.70
2022-08-21T11:14:05.339Z,12.20
2022-08-21T11:16:43.545Z,11.40
2022-08-21T11:19:23.032Z,10.60
2022-08-21T11:22:01.395Z,10.50
2022-08-21T11:24:40.884Z,9.90
2022-08-21T11:27:21.725Z,9.30
2022-08-21T11:29:58.117Z,9.10
2022-08-21T11:32:48.865Z,9.10
2022-08-21T11:35:34.659Z,8.30
2022-08-21T11:38:24.259Z,8.40
2022-08-21T11:41:22.261Z,8.90
2022-08-21T11:44:05.146Z,8.40
2022-08-21T11:46:47.299Z,8.50
2022-08-21T11:49:34.170Z,7.60
2022-08-21T11:52:16.162Z,7.70
2022-08-21T11:54:52.326Z,7.20
2022-08-21T11:57:30.403Z,7.10
2022-08-21T12:00:08.936Z,7.40
2022-08-21T12:02:55.889Z,7.20
2022-08-21T12:05:34.194Z,6.70
2022-08-21T12:08:12.530Z,7.50
2022-08-21T12:11:00.840Z,6.80
2022-08-21T12:13:40.406Z,6.60
2022-08-21T12:16:18.719Z,5.90
2022-08-21T12:18:50.633Z,6.70
2022-08-21T12:21:27.149Z,6.80
2022-08-21T12:24:18.331Z,6.50
2022-08-21T12:26:56.108Z,6.40
2022-08-21T12:29:30.852Z,5.50
2022-08-21T12:32:06.628Z,5.80
2022-08-21T12:34:43.284Z,6.40
2022-08-21T12:37:22.502Z,5.60
2022-08-21T12:40:00.759Z,6.00
2022-08-21T12:42:39.697Z,6.10
2022-08-21T12:45:20.577Z,6.10
2022-08-21T12:47:58.341Z,6.00
2022-08-21T12:50:39.276Z,6.10
2022-08-21T12:53:20.460Z,6.50
2022-08-21T12:55:53.605Z,5.80
2022-08-21T12:58:26.775Z,5.90
2022-08-21T13:01:02.041Z,6.20
2022-08-21T13:03:37.521Z,6.00
2022-08-21T13:06:16.062Z,6.20
2022-08-21T13:08:50.114Z,6.50
2022-08-21T13:11:32.712Z,6.10
2022-08-21T13:14:10.862Z,5.70
2022-08-21T13:16:44.499Z,6.00
2022-08-21T13:19:24.074Z,5.60
2022-08-21T13:21:56.659Z,6.00
2022-08-21T13:24:42.328Z,5.60
2022-08-21T13:27:28.694Z,6.30
2022-08-21T13:30:15.388Z,6.10
2022-08-21T13:32:52.397Z,5.70
2022-08-21T13:35:26.964Z,5.50
2022-08-21T13:38:00.779Z,6.30
2022-08-21T13:40:49.230Z,6.30
2022-08-21T13:43:24.571Z,5.80
2022-08-21T13:45:59.088Z,6.00
2022-08-21T13:48:35.283Z,5.80
2022-08-21T13:51:08.425Z,6.30
2022-08-21T13:53:52.425Z,6.30
2022-08-21T13:56:30.314Z,6.60
2022-08-21T13:59:04.932Z,6.10
2022-08-21T14:01:41.135Z,6.30
2022-08-21T14:04:23.125Z,5.40
2022-08-21T14:06:55.637Z,5.30
2022-08-21T14:09:31.836Z,5.40
2022-08-21T14:12:23.495Z,5.10
2022-08-21T14:14:58.041Z,4.90
2022-08-21T14:17:36.326Z,4.40
2022-08-21T14:20:13.846Z,4.00
2022-08-21T14:22:48.188Z,4.30
2022-08-21T14:25:43.776Z,3.70
2022-08-21T14:28:27.878Z,3.70
2022-08-21T14:31:01.210Z,3.80
2022-08-21T14:33:37.246Z,3.40
2022-08-21T14:36:10.330Z,3.40
2022-08-21T14:38:44.490Z,3.30
2022-08-21T14:41:20.924Z,3.30
2022-08-21T14:44:05.872Z,3.30
2022-08-21T14:46:55.395Z,3.40
2022-08-21T14:49:30.604Z,3.70
2022-08-21T14:52:03.220Z,3.50
2022-08-21T14:54:36.277Z,3.60
2022-08-21T14:57:11.297Z,3.10
2022-08-21T14:59:44.077Z,3.50
2022-08-21T15:02:16.190Z,3.30
2022-08-21T15:04:48.220Z,3.20
2022-08-21T15:07:22.649Z,3.00
2022-08-21T15:09:55.885Z,3.40
2022-08-21T15:12:28.500Z,2.90
2022-08-21T15:15:00.742Z,2.80
2022-08-21T15:17:34.385Z,2.70
2022-08-21T15:20:08.736Z,2.80
2022-08-21T15:22:47.688Z,2.40
2022-08-21T15:25:30.793Z,2.70
2022-08-21T15:28:05.111Z,2.50
2022-08-21T15:30:38.395Z,2.70
2022-08-21T15:33:10.652Z,2.20
2022-08-21T15:35:43.801Z,2.00
2022-08-21T15:38:17.154Z,2.80
2022-08-21T15:40:52.311Z,2.40
2022-08-21T15:43:30.034Z,2.30
2022-08-21T15:46:03.929Z,2.30
2022-08-21T15:48:35.896Z,2.50
2022-08-21T15:51:08.326Z,2.40
2022-08-21T15:53:41.401Z,2.10
2022-08-21T15:56:22.646Z,2.20
2022-08-21T15:59:01.275Z,2.70
2022-08-21T16:01:44.424Z,1.90
2022-08-21T16:04:21.957Z,2.70
2022-08-21T16:06:59.863Z,2.00
2022-08-21T16:09:36.144Z,2.30
2022-08-21T16:12:09.865Z,2.20
2022-08-21T16:14:41.926Z,2.20
2022-08-21T16:17:13.958Z,2.40
2022-08-21T16:19:47.432Z,2.40
2022-08-21T16:22:19.431Z,1.90
2022-08-21T16:24:51.343Z,2.00
2022-08-21T16:27:23.618Z,2.90
2022-08-21T16:29:59.854Z,2.20
2022-08-21T16:32:32.202Z,1.90
2022-08-21T16:35:05.676Z,2.20
2022-08-21T16:37:37.481Z,2.30
2022-08-21T16:40:12.251Z,1.90
2022-08-21T16:42:46.328Z,2.30
2022-08-21T16:45:21.438Z,2.30
2022-08-21T16:47:53.606Z,5.20
2022-08-21T16:50:26.737Z,5.60
2022-08-21T16:53:01.270Z,8.10
2022-08-21T16:55:33.824Z,5.80
2022-08-21T16:58:10.456Z,2.70
2022-08-21T17:00:42.497Z,2.60
2022-08-21T17:03:18.416Z,2.30
2022-08-21T17:05:51.227Z,5.00
2022-08-21T17:08:25.331Z,2.60
2022-08-21T17:10:58.500Z,1.70
2022-08-21T17:13:31.225Z,1.70
2022-08-21T17:16:03.885Z,2.00
2022-08-21T17:18:36.149Z,2.20
2022-08-21T17:21:08.610Z,1.90
2022-08-21T17:23:40.777Z,1.80
2022-08-21T17:26:14.302Z,2.00
2022-08-21T17:28:50.911Z,2.10
2022-08-21T17:31:25.223Z,1.70
2022-08-21T17:33:59.877Z,1.50
2022-08-21T17:36:32.619Z,1.80
2022-08-21T17:39:07.401Z,2.10
2022-08-21T17:41:40.844Z,2.10
2022-08-21T17:44:19.531Z,2.10
2022-08-21T17:46:52.787Z,2.00
2022-08-21T17:49:25.546Z,2.10
2022-08-21T17:51:57.633Z,2.20
2022-08-21T17:54:34.704Z,2.00
2022-08-21T17:57:08.674Z,2.20
2022-08-21T17:59:41.285Z,2.10
2022-08-21T18:02:19.979Z,2.60
2022-08-21T18:07:59.639Z,2.10
2022-08-21T18:10:31.954Z,2.20
2022-08-21T18:13:22.954Z,2.10
2022-08-21T18:16:26.678Z,2.30
2022-08-21T18:19:16.156Z,2.40
2022-08-21T18:21:48.210Z,2.50
2022-08-21T18:24:20.273Z,2.30
2022-08-21T18:26:53.666Z,2.60
2022-08-21T18:29:25.794Z,2.20
2022-08-21T18:31:58.024Z,3.40
2022-08-21T18:34:34.404Z,3.90
2022-08-21T18:37:06.852Z,2.00
2022-08-21T18:39:39.233Z,2.20
2022-08-21T18:42:14.919Z,2.00
2022-08-21T18:44:49.387Z,2.00
2022-08-21T18:47:30.819Z,2.00
2022-08-21T18:50:02.959Z,2.00
2022-08-21T18:52:36.296Z,2.00
2022-08-21T18:55:13.455Z,2.70
2022-08-21T18:57:47.931Z,1.80
2022-08-21T19:00:27.185Z,2.30
2022-08-21T19:03:00.096Z,2.10
2022-08-21T19:05:32.269Z,2.60
2022-08-21T19:08:05.055Z,2.20
2022-08-21T19:10:37.924Z,2.20
2022-08-21T19:13:17.588Z,7.50
2022-08-21T19:15:53.058Z,2.80
2022-08-21T19:18:28.653Z,2.40
2022-08-21T19:21:01.604Z,2.80
2022-08-21T19:23:35.139Z,2.70
2022-08-21T19:26:10.883Z,2.20
2022-08-21T19:28:48.643Z,2.80
2022-08-21T19:31:23.509Z,3.00
2022-08-21T19:36:56.744Z,2.60
2022-08-21T19:39:40.229Z,2.40
2022-08-21T19:42:15.060Z,2.90
2022-08-21T19:44:47.369Z,2.70
2022-08-21T19:47:20.878Z,3.10
2022-08-21T19:49:58.184Z,3.00
2022-08-21T19:52:32.559Z,2.60
2022-08-21T19:55:15.341Z,3.10
2022-08-21T19:57:47.690Z,3.10
2022-08-21T20:00:19.918Z,2.70
2022-08-21T20:02:54.244Z,2.70
2022-08-21T20:05:26.239Z,2.70
2022-08-21T20:11:08.890Z,2.60
2022-08-21T20:13:43.361Z,2.70
2022-08-21T20:16:19.221Z,2.90
2022-08-21T20:18:51.202Z,3.00
2022-08-21T20:21:23.506Z,2.90
2022-08-21T20:23:55.537Z,2.60
2022-08-21T20:26:28.188Z,2.90
2022-08-21T20:29:00.942Z,3.30
2022-08-21T20:31:33.183Z,2.90
2022-08-21T20:34:06.028Z,2.40
2022-08-21T20:36:38.195Z,2.30
2022-08-21T20:39:11.334Z,3.00
2022-08-21T20:41:45.266Z,2.50
2022-08-21T20:44:29.931Z,1.90
2022-08-21T20:47:08.668Z,2.10
2022-08-21T20:49:46.903Z,2.20
2022-08-21T20:52:21.761Z,2.30
2022-08-21T20:55:00.701Z,2.00
2022-08-21T20:57:46.660Z,2.20
2022-08-21T21:00:26.958Z,2.00
2022-08-21T21:03:11.058Z,2.60
2022-08-21T21:05:49.865Z,2.00
2022-08-21T21:08:26.282Z,2.40
2022-08-21T21:11:00.814Z,2.30
2022-08-21T21:13:37.513Z,1.90
2022-08-21T21:16:19.582Z,2.10
2022-08-21T21:18:56.919Z,2.20
2022-08-21T21:21:36.720Z,2.00
2022-08-21T21:24:14.415Z,2.60
2022-08-21T21:26:50.680Z,2.40
2022-08-21T21:29:30.083Z,2.40
2022-08-21T21:32:07.812Z,1.70
2022-08-21T21:34:42.783Z,2.40
2022-08-21T21:37:25.331Z,2.30
2022-08-21T21:40:08.199Z,2.20
2022-08-21T21:42:50.885Z,1.80
2022-08-21T21:45:28.192Z,1.90
2022-08-21T21:48:13.496Z,2.20
2022-08-21T21:51:00.880Z,2.50
2022-08-21T21:53:51.627Z,1.90
2022-08-21T21:56:43.741Z,2.20
2022-08-21T21:59:42.243Z,2.00
2022-08-21T22:02:25.112Z,2.30
2022-08-21T22:05:08.930Z,2.40
2022-08-21T22:07:45.237Z,2.20
2022-08-21T22:10:30.500Z,2.40
2022-08-21T22:13:13.832Z,2.60
2022-08-21T22:16:01.866Z,2.20
2022-08-21T22:18:45.773Z,2.50
2022-08-21T22:21:24.148Z,2.10
2022-08-21T22:24:04.041Z,2.60
2022-08-21T22:26:44.359Z,2.20
2022-08-21T22:29:20.497Z,2.30
2022-08-21T22:32:08.590Z,2.40
2022-08-21T22:34:43.754Z,2.10
2022-08-21T22:37:15.739Z,2.10
2022-08-21T22:39:56.627Z,2.00
2022-08-21T22:42:29.013Z,1.70
2022-08-21T22:45:04.764Z,1.80
2022-08-21T22:47:48.481Z,2.10
2022-08-21T22:50:31.734Z,2.00
2022-08-21T22:53:07.902Z,1.70
2022-08-21T22:55:43.662Z,1.50
2022-08-21T22:58:23.798Z,1.80
2022-08-21T23:01:00.414Z,1.50
2022-08-21T23:03:43.633Z,2.10
2022-08-21T23:06:29.146Z,1.50
2022-08-21T23:09:01.139Z,1.40
2022-08-21T23:11:42.726Z,1.90
2022-08-21T23:14:16.574Z,2.70
2022-08-21T23:16:54.863Z,1.30
2022-08-21T23:19:43.815Z,1.50
2022-08-21T23:22:40.822Z,1.30
2022-08-21T23:25:39.250Z,2.30
2022-08-21T23:28:22.901Z,1.40
2022-08-21T23:31:04.195Z,1.60
2022-08-21T23:33:58.678Z,2.10
2022-08-21T23:37:03.481Z,1.80
2022-08-21T23:39:51.725Z,1.50
2022-08-21T23:42:50.990Z,1.90
2022-08-21T23:45:35.809Z,1.60
2022-08-21T23:48:29.313Z,1.80
2022-08-21T23:51:09.668Z,1.60
2022-08-21T23:53:52.702Z,1.70
2022-08-21T23:56:37.731Z,2.80
2022-08-21T23:59:19.446Z,2.20
